Meteo Giornale » Osservazioni meteo Stati Uniti (USA) » Van Nuys

ore: 11:51 - Osservazioni Meteo Van Nuys
Lat. 34° 12' N Lon. 118° 29' W Alt. 243 metri s.l.m.

sereno America/Los_Angeles

36 °C

Sereno

Temp. 24 Ore

21 °C

37 °C

Nord

0 Km/h

Dew point 11 °C

Umidità 22 %

Visibilità  10 Km

Il sole sorge alle ore 05:55

Il sole tramonta alle ore 20:04

Data e Ora Cielo e Fenomeni T °C DP °C Um. % Pres. hPa Vis. km Vento km/h
Oggi h: 11:51 sereno Sereno 36 11 22 1013 10 N 0
Oggi h: 10:51 sereno Sereno 33 11 26 1014 10 N 0
Oggi h: 09:51 sereno Sereno 32 10 25 1014 10 N 5.5
Oggi h: 08:51 sereno Sereno 28 12 37 1014 10 N 0
Oggi h: 07:51 sereno Sereno 24 14 53 1014 10 N 0
Oggi h: 06:51 sereno Sereno 22 13 56 1014 10 N 0
Oggi h: 05:51 sereno Sereno 21 16 73 1013 10 N 5.5
Oggi h: 04:51 sereno Sereno 21 16 73 1013 10 N 0
Oggi h: 03:51 sereno Sereno 22 16 68 1013 10 N 0
Oggi h: 02:51 sereno Sereno 23 16 64 1013 10 N 0
Oggi h: 01:51 sereno Sereno 23 15 60 1013 10 N 0
Oggi h: 00:51 sereno Sereno 23 15 60 1013 10 N 0
Ieri h: 23:51 sereno Sereno 24 14 53 1014 10 E 7.4
Ieri h: 22:51 sereno Sereno 26 14 47 1014 10 E 7.4
Ieri h: 21:51 sereno Sereno 26 14 47 1014 10 N 0
Ieri h: 20:51 sereno Sereno 27 15 47 1013 10 N 0
Ieri h: 19:51 sereno Sereno 29 13 37 1012 10 E/SE 13
Ieri h: 18:51 sereno Sereno 33 12 27 1012 10 E/SE 7.4
Ieri h: 17:51 sereno Sereno 33 13 29 1012 10 E/SE 13
Ieri h: 16:51 sereno Sereno 34 12 26 1012 10 E/SE 16.7
Ieri h: 15:51 sereno Sereno 36 14 26 1012 10 E/SE 18.5
Ieri h: 14:51 sereno Sereno 36 14 26 1013 10 SE 20.3
Ieri h: 13:51 sereno Sereno 37 14 25 1014 10 S/SE 11.1
Ieri h: 12:51 sereno Sereno 35 15 30 1014 10 SE 7.4